createdAt,value
2023-02-03T00:00:59.280Z,1.54
2023-02-03T00:03:41.447Z,1.55
2023-02-03T00:06:18.315Z,1.55
2023-02-03T00:08:59.499Z,1.55
2023-02-03T00:11:36.919Z,1.54
2023-02-03T00:14:13.414Z,1.52
2023-02-03T00:16:50.206Z,1.51
2023-02-03T00:19:26.498Z,1.51
2023-02-03T00:22:02.874Z,1.51
2023-02-03T00:24:39.429Z,1.50
2023-02-03T00:27:15.807Z,1.50
2023-02-03T00:29:52.391Z,1.50
2023-02-03T00:32:28.785Z,1.48
2023-02-03T00:35:05.430Z,1.47
2023-02-03T00:37:41.723Z,1.45
2023-02-03T00:40:20.251Z,1.46
2023-02-03T00:42:56.894Z,1.45
2023-02-03T00:45:33.309Z,1.47
2023-02-03T00:48:10.572Z,1.46
2023-02-03T00:50:49.500Z,1.44
2023-02-03T00:53:27.340Z,1.43
2023-02-03T00:56:04.691Z,1.44
2023-02-03T00:58:41.277Z,1.41
2023-02-03T01:01:17.727Z,1.39
2023-02-03T01:03:55.363Z,1.35
2023-02-03T01:06:32.303Z,1.32
2023-02-03T01:09:09.381Z,1.31
2023-02-03T01:11:46.198Z,1.31
2023-02-03T01:14:24.345Z,1.30
2023-02-03T01:17:01.357Z,1.28
2023-02-03T01:19:38.260Z,1.28
2023-02-03T01:22:14.624Z,1.29
2023-02-03T01:24:50.796Z,1.28
2023-02-03T01:27:27.564Z,1.28
2023-02-03T01:30:05.832Z,1.28
2023-02-03T01:32:42.068Z,1.28
2023-02-03T01:35:18.608Z,1.27
2023-02-03T01:37:54.843Z,1.27
2023-02-03T01:40:31.136Z,1.27
2023-02-03T01:43:07.425Z,1.27
2023-02-03T01:45:44.566Z,1.29
2023-02-03T01:48:21.112Z,1.30
2023-02-03T01:50:57.491Z,1.30
2023-02-03T01:53:35.016Z,1.31
2023-02-03T01:56:12.559Z,1.31
2023-02-03T01:58:52.601Z,1.34
2023-02-03T02:01:30.616Z,1.36
2023-02-03T02:04:09.536Z,1.37
2023-02-03T02:06:48.212Z,1.38
2023-02-03T02:09:25.128Z,1.38
2023-02-03T02:12:01.445Z,1.38
2023-02-03T02:14:37.809Z,1.38
2023-02-03T02:17:35.797Z,1.36
2023-02-03T02:21:11.442Z,1.36
2023-02-03T02:25:00.907Z,1.36
2023-02-03T02:28:36.028Z,1.34
2023-02-03T02:32:04.782Z,1.33
2023-02-03T02:34:59.536Z,1.31
2023-02-03T02:37:50.777Z,1.26
2023-02-03T02:40:42.319Z,1.23
2023-02-03T02:43:28.639Z,1.21
2023-02-03T02:46:15.022Z,1.20
2023-02-03T02:49:01.617Z,1.17
2023-02-03T02:51:41.122Z,1.12
2023-02-03T02:54:24.646Z,1.08
2023-02-03T02:57:05.501Z,1.00
2023-02-03T02:59:41.789Z,0.91
2023-02-03T03:02:18.364Z,0.87
2023-02-03T03:04:55.602Z,0.81
2023-02-03T03:07:38.284Z,0.75
2023-02-03T03:10:24.709Z,0.67
2023-02-03T03:13:09.645Z,0.60
2023-02-03T03:15:49.688Z,0.54
2023-02-03T03:18:33.242Z,0.47
2023-02-03T03:21:14.787Z,0.40
2023-02-03T03:23:55.734Z,0.31
2023-02-03T03:26:41.417Z,0.27
2023-02-03T03:29:23.529Z,0.22
2023-02-03T03:32:00.630Z,0.15
2023-02-03T03:34:38.365Z,0.11
2023-02-03T03:37:24.614Z,0.06
2023-02-03T03:40:06.931Z,0.03
2023-02-03T03:42:50.940Z,-0.01
2023-02-03T03:45:37.315Z,-0.05
2023-02-03T03:48:20.949Z,-0.08
2023-02-03T03:51:04.970Z,-0.13
2023-02-03T03:53:46.952Z,-0.19
2023-02-03T03:56:33.447Z,-0.21
2023-02-03T03:59:15.367Z,-0.24
2023-02-03T04:01:50.862Z,-0.27
2023-02-03T04:04:29.292Z,-0.32
2023-02-03T04:07:05.699Z,-0.35
2023-02-03T04:09:43.036Z,-0.40
2023-02-03T04:12:27.627Z,-0.45
2023-02-03T04:15:03.898Z,-0.45
2023-02-03T04:17:40.156Z,-0.48
2023-02-03T04:20:19.122Z,-0.51
2023-02-03T04:22:55.992Z,-0.54
2023-02-03T04:25:32.448Z,-0.55
2023-02-03T04:28:09.264Z,-0.56
2023-02-03T04:30:45.643Z,-0.58
2023-02-03T04:33:22.050Z,-0.58
2023-02-03T04:35:58.235Z,-0.59
2023-02-03T04:38:34.591Z,-0.60
2023-02-03T04:41:11.241Z,-0.61
2023-02-03T04:43:47.818Z,-0.61
2023-02-03T04:46:24.032Z,-0.61
2023-02-03T04:49:00.554Z,-0.60
2023-02-03T04:51:36.822Z,-0.59
2023-02-03T04:54:13.997Z,-0.57
2023-02-03T04:56:50.347Z,-0.57
2023-02-03T04:59:26.936Z,-0.56
2023-02-03T05:02:04.915Z,-0.56
2023-02-03T05:04:41.167Z,-0.56
2023-02-03T05:07:17.433Z,-0.56
2023-02-03T05:09:53.776Z,-0.53
2023-02-03T05:12:30.136Z,-0.52
2023-02-03T05:15:07.881Z,-0.52
2023-02-03T05:17:44.234Z,-0.53
2023-02-03T05:20:20.989Z,-0.49
2023-02-03T05:22:57.309Z,-0.48
2023-02-03T05:25:33.609Z,-0.49
2023-02-03T05:28:10.605Z,-0.48
2023-02-03T05:30:47.154Z,-0.48
2023-02-03T05:33:23.849Z,-0.47
2023-02-03T05:36:00.551Z,-0.48
2023-02-03T05:38:37.029Z,-0.48
2023-02-03T05:41:32.329Z,-0.49
2023-02-03T05:44:09.117Z,-0.48
2023-02-03T05:46:45.379Z,-0.47
2023-02-03T05:49:23.362Z,-0.49
2023-02-03T05:52:00.543Z,-0.50
2023-02-03T05:54:36.840Z,-0.51
2023-02-03T05:57:13.659Z,-0.49
2023-02-03T05:59:50.042Z,-0.50
2023-02-03T06:02:26.417Z,-0.51
2023-02-03T06:05:02.593Z,-0.48
2023-02-03T06:07:39.130Z,-0.47
2023-02-03T06:10:17.342Z,-0.47
2023-02-03T06:12:54.301Z,-0.46
2023-02-03T06:15:30.749Z,-0.42
2023-02-03T06:18:07.988Z,-0.42
2023-02-03T06:20:44.271Z,-0.41
2023-02-03T06:23:21.674Z,-0.41
2023-02-03T06:26:00.056Z,-0.42
2023-02-03T06:28:38.353Z,-0.41
2023-02-03T06:31:14.700Z,-0.39
2023-02-03T06:33:51.071Z,-0.40
2023-02-03T06:36:27.590Z,-0.40
2023-02-03T06:39:04.045Z,-0.38
2023-02-03T06:41:40.298Z,-0.35
2023-02-03T06:44:16.588Z,-0.33
2023-02-03T06:46:52.991Z,-0.30
2023-02-03T06:49:29.515Z,-0.26
2023-02-03T06:52:06.225Z,-0.25
2023-02-03T06:54:42.522Z,-0.22
2023-02-03T06:57:18.834Z,-0.18
2023-02-03T06:59:55.391Z,-0.16
2023-02-03T07:02:32.178Z,-0.11
2023-02-03T07:05:10.326Z,-0.06
2023-02-03T07:07:46.525Z,-0.00
2023-02-03T07:10:23.874Z,0.05
2023-02-03T07:13:05.056Z,0.11
2023-02-03T07:15:41.748Z,0.19
2023-02-03T07:18:36.020Z,0.25
2023-02-03T07:21:17.400Z,0.32
2023-02-03T07:23:54.422Z,0.38
2023-02-03T07:26:30.997Z,0.45
2023-02-03T07:29:08.524Z,0.51
2023-02-03T07:31:45.948Z,0.57
2023-02-03T07:34:22.269Z,0.63
2023-02-03T07:36:59.414Z,0.69
2023-02-03T07:39:35.698Z,0.77
2023-02-03T07:42:12.255Z,0.85
2023-02-03T07:44:52.927Z,0.96
2023-02-03T07:47:29.213Z,1.04
2023-02-03T07:50:06.341Z,1.12
2023-02-03T07:52:42.921Z,1.20
2023-02-03T07:55:19.529Z,1.26
2023-02-03T07:57:58.187Z,1.38
2023-02-03T08:00:34.537Z,1.46
2023-02-03T08:03:10.823Z,1.48
2023-02-03T08:05:46.996Z,1.56
2023-02-03T08:08:23.257Z,1.64
2023-02-03T08:11:01.085Z,1.67
2023-02-03T08:13:37.636Z,1.73
2023-02-03T08:16:14.563Z,1.77
2023-02-03T08:18:50.801Z,1.83
2023-02-03T08:21:27.158Z,1.85
2023-02-03T08:24:03.857Z,1.93
2023-02-03T08:26:42.243Z,1.98
2023-02-03T08:29:18.835Z,1.97
2023-02-03T08:31:55.342Z,1.97
2023-02-03T08:34:34.213Z,1.99
2023-02-03T08:37:11.854Z,1.98
2023-02-03T08:39:48.649Z,2.00
2023-02-03T08:42:25.445Z,2.03
2023-02-03T08:45:04.925Z,2.08
2023-02-03T08:47:41.770Z,2.09
2023-02-03T08:50:19.918Z,2.12
2023-02-03T08:52:56.133Z,2.15
2023-02-03T08:55:32.653Z,2.19
2023-02-03T08:58:08.868Z,2.22
2023-02-03T09:00:45.458Z,2.25
2023-02-03T09:03:21.842Z,2.28
2023-02-03T09:05:58.255Z,2.33
2023-02-03T09:08:34.762Z,2.41
2023-02-03T09:11:16.696Z,2.45
2023-02-03T09:13:51.914Z,2.55
2023-02-03T09:16:31.160Z,2.60
2023-02-03T09:19:07.667Z,2.67
2023-02-03T09:21:45.539Z,2.78
2023-02-03T09:24:25.192Z,2.82
2023-02-03T09:27:02.318Z,2.91
2023-02-03T09:29:38.491Z,3.05
2023-02-03T09:32:15.883Z,3.18
2023-02-03T09:34:52.210Z,3.30
2023-02-03T09:37:30.314Z,3.35
2023-02-03T09:40:07.819Z,3.36
2023-02-03T09:43:08.598Z,3.34
2023-02-03T09:45:44.988Z,3.32
2023-02-03T09:48:37.128Z,3.30
2023-02-03T09:51:21.629Z,3.32
2023-02-03T09:54:07.557Z,3.40
2023-02-03T09:56:50.985Z,3.41
2023-02-03T09:59:28.556Z,3.41
2023-02-03T10:02:31.497Z,3.47
2023-02-03T10:05:21.691Z,3.53
2023-02-03T10:08:17.541Z,3.59
2023-02-03T10:11:11.721Z,3.57
2023-02-03T10:14:09.288Z,3.47
2023-02-03T10:17:09.721Z,3.38
2023-02-03T10:19:54.501Z,3.37
2023-02-03T10:22:35.955Z,3.35
2023-02-03T10:25:27.097Z,3.32
2023-02-03T10:28:12.069Z,3.35
2023-02-03T10:30:56.968Z,3.39
2023-02-03T10:33:35.705Z,3.40
2023-02-03T10:36:23.283Z,3.38
2023-02-03T10:39:16.040Z,3.33
2023-02-03T10:41:52.799Z,3.39
2023-02-03T10:44:37.814Z,3.45
2023-02-03T10:47:34.774Z,3.47
2023-02-03T10:50:21.853Z,3.42
2023-02-03T10:53:27.014Z,3.41
2023-02-03T10:56:14.667Z,3.43
2023-02-03T10:58:56.898Z,3.40
2023-02-03T11:01:47.500Z,3.28
2023-02-03T11:04:33.003Z,3.21
2023-02-03T11:07:26.891Z,3.12
2023-02-03T11:10:03.353Z,3.01
2023-02-03T11:12:39.819Z,2.96
2023-02-03T11:15:22.158Z,2.97
2023-02-03T11:17:58.899Z,2.95
2023-02-03T11:20:38.820Z,2.89
2023-02-03T11:23:15.622Z,2.87
2023-02-03T11:25:52.512Z,2.83
2023-02-03T11:28:31.867Z,2.83
2023-02-03T11:31:17.818Z,2.83
2023-02-03T11:34:01.753Z,2.81
2023-02-03T11:36:39.587Z,2.75
2023-02-03T11:39:26.781Z,2.69
2023-02-03T11:42:03.750Z,2.61
2023-02-03T11:44:40.225Z,2.50
2023-02-03T11:47:19.659Z,2.35
2023-02-03T11:50:27.209Z,2.20
2023-02-03T11:53:24.244Z,2.08
2023-02-03T11:56:26.633Z,1.97
2023-02-03T11:59:53.199Z,1.87
2023-02-03T12:03:18.565Z,1.76
2023-02-03T12:06:27.020Z,1.67
2023-02-03T12:09:31.002Z,1.62
2023-02-03T12:12:39.978Z,1.55
2023-02-03T12:15:50.310Z,1.47
2023-02-03T12:18:50.243Z,1.46
2023-02-03T12:21:50.667Z,1.47
2023-02-03T12:24:45.347Z,1.48
2023-02-03T12:27:43.320Z,1.49
2023-02-03T12:30:30.247Z,1.53
2023-02-03T12:33:18.375Z,1.53
2023-02-03T12:36:05.928Z,1.51
2023-02-03T12:38:52.197Z,1.55
2023-02-03T12:41:32.795Z,1.56
2023-02-03T12:44:21.094Z,1.58
2023-02-03T12:47:09.143Z,1.59
2023-02-03T12:49:54.894Z,1.57
2023-02-03T12:52:39.019Z,1.54
2023-02-03T12:55:34.135Z,1.51
2023-02-03T12:58:22.002Z,1.52
2023-02-03T13:01:08.757Z,1.52
2023-02-03T13:03:51.747Z,1.49
2023-02-03T13:06:37.969Z,1.46
2023-02-03T13:09:38.419Z,1.45
2023-02-03T13:12:26.665Z,1.46
2023-02-03T13:15:21.891Z,1.48
2023-02-03T13:18:06.611Z,1.47
2023-02-03T13:20:43.692Z,1.49
2023-02-03T13:23:20.674Z,1.49
2023-02-03T13:26:33.054Z,1.47
2023-02-03T13:29:43.708Z,1.45
2023-02-03T13:32:45.149Z,1.44
2023-02-03T13:35:52.102Z,1.48
2023-02-03T13:39:21.587Z,1.50
2023-02-03T13:42:14.353Z,1.53
2023-02-03T13:44:55.222Z,1.57
2023-02-03T13:47:34.433Z,1.60
2023-02-03T13:50:22.592Z,1.62
2023-02-03T13:53:08.349Z,1.65
2023-02-03T13:55:54.569Z,1.70
2023-02-03T13:58:35.339Z,1.72
2023-02-03T14:01:38.583Z,1.77
2023-02-03T14:04:55.511Z,1.76
2023-02-03T14:07:40.600Z,1.78
2023-02-03T14:10:30.243Z,1.81
2023-02-03T14:13:24.275Z,1.84
2023-02-03T14:16:28.079Z,1.86
2023-02-03T14:19:05.007Z,1.83
2023-02-03T14:21:50.743Z,1.84
2023-02-03T14:24:34.477Z,1.81
2023-02-03T14:27:25.314Z,1.80
2023-02-03T14:30:14.727Z,1.76
2023-02-03T14:33:01.082Z,1.75
2023-02-03T14:35:42.456Z,1.73
2023-02-03T14:38:20.377Z,1.72
2023-02-03T14:41:02.361Z,1.69
2023-02-03T14:43:47.130Z,1.68
2023-02-03T14:46:59.077Z,1.67
2023-02-03T14:50:23.824Z,1.67
2023-02-03T14:53:27.584Z,1.63
2023-02-03T14:56:24.217Z,1.59
2023-02-03T14:59:11.392Z,1.57
2023-02-03T15:02:23.448Z,1.56
2023-02-03T15:05:42.228Z,1.55
2023-02-03T15:08:53.203Z,1.52
2023-02-03T15:11:44.396Z,1.49
2023-02-03T15:14:31.386Z,1.48
2023-02-03T15:17:24.847Z,1.47
2023-02-03T15:20:01.340Z,1.44
2023-02-03T15:22:43.260Z,1.44
2023-02-03T15:25:25.628Z,1.43
2023-02-03T15:28:20.916Z,1.38
2023-02-03T15:31:07.806Z,1.38
2023-02-03T15:33:45.419Z,1.38
2023-02-03T15:36:28.172Z,1.35
2023-02-03T15:39:23.534Z,1.34
2023-02-03T15:42:02.223Z,1.32
2023-02-03T15:44:48.441Z,1.29
2023-02-03T15:47:35.336Z,1.29
2023-02-03T15:50:37.731Z,1.27
2023-02-03T15:53:29.657Z,1.25
2023-02-03T15:56:21.637Z,1.25
2023-02-03T15:58:58.964Z,1.27
2023-02-03T16:01:36.043Z,1.27
2023-02-03T16:04:15.723Z,1.28
2023-02-03T16:06:56.919Z,1.30
2023-02-03T16:09:42.783Z,1.34
2023-02-03T16:12:30.413Z,1.35
2023-02-03T16:15:08.135Z,1.36
2023-02-03T16:17:44.441Z,1.40
2023-02-03T16:20:33.514Z,1.44
2023-02-03T16:23:23.948Z,1.50
2023-02-03T16:26:20.943Z,1.54
2023-02-03T16:29:36.140Z,1.59
2023-02-03T16:32:41.676Z,1.65
2023-02-03T16:35:35.599Z,1.73
2023-02-03T16:38:38.915Z,1.77
2023-02-03T16:41:38.820Z,1.84
2023-02-03T16:44:34.330Z,1.89
2023-02-03T16:47:45.386Z,1.94
2023-02-03T16:50:43.546Z,1.99
2023-02-03T16:53:23.273Z,2.05
2023-02-03T16:56:05.492Z,2.09
2023-02-03T16:58:41.952Z,2.13
2023-02-03T17:01:18.661Z,2.18
2023-02-03T17:03:55.130Z,2.23
2023-02-03T17:06:33.090Z,2.27
2023-02-03T17:09:10.185Z,2.32
2023-02-03T17:11:46.517Z,2.36
2023-02-03T17:14:22.846Z,2.39
2023-02-03T17:16:59.995Z,2.42
2023-02-03T17:19:37.183Z,2.47
2023-02-03T17:22:13.655Z,2.51
2023-02-03T17:24:50.018Z,2.54
2023-02-03T17:27:26.491Z,2.59
2023-02-03T17:30:03.079Z,2.64
2023-02-03T17:32:39.519Z,2.69
2023-02-03T17:35:16.240Z,2.74
2023-02-03T17:37:53.174Z,2.81
2023-02-03T17:55:02.541Z,3.02
2023-02-03T17:57:41.154Z,3.05
2023-02-03T18:00:20.086Z,3.08
2023-02-03T18:02:57.786Z,3.10
2023-02-03T18:05:37.108Z,3.12
2023-02-03T18:08:16.670Z,3.12
2023-02-03T18:10:56.747Z,3.13
2023-02-03T18:13:33.977Z,3.15
2023-02-03T18:16:15.213Z,3.16
2023-02-03T18:18:52.770Z,3.18
2023-02-03T18:21:32.426Z,3.20
2023-02-03T18:24:11.140Z,3.20
2023-02-03T18:26:54.717Z,3.19
2023-02-03T18:29:31.693Z,3.21
2023-02-03T18:32:08.483Z,3.19
2023-02-03T18:34:45.407Z,3.18
2023-02-03T18:37:21.665Z,3.15
2023-02-03T18:39:58.296Z,3.12
2023-02-03T18:42:34.874Z,3.11
2023-02-03T18:45:13.269Z,3.11
2023-02-03T18:47:49.701Z,3.10
2023-02-03T18:50:26.389Z,3.10
2023-02-03T18:53:02.800Z,3.09
2023-02-03T18:55:41.593Z,3.08
2023-02-03T18:58:18.642Z,3.08
2023-02-03T19:00:56.188Z,3.08
2023-02-03T19:03:33.197Z,3.07
2023-02-03T19:06:14.640Z,3.06
2023-02-03T19:08:52.110Z,3.08
2023-02-03T19:11:28.785Z,3.08
2023-02-03T19:14:05.602Z,3.08
2023-02-03T19:16:41.931Z,3.09
2023-02-03T19:19:21.430Z,3.09
2023-02-03T19:21:58.809Z,3.09
2023-02-03T19:24:35.678Z,3.08
2023-02-03T19:27:12.560Z,3.08
2023-02-03T19:29:49.656Z,3.07
2023-02-03T19:32:26.213Z,3.06
2023-02-03T19:35:02.956Z,3.05
2023-02-03T19:37:39.474Z,3.04
2023-02-03T19:40:18.181Z,3.04
2023-02-03T19:42:54.538Z,3.03
2023-02-03T19:45:31.032Z,3.02
2023-02-03T19:48:08.600Z,3.03
2023-02-03T19:50:46.576Z,3.02
2023-02-03T19:53:24.451Z,3.02
2023-02-03T19:56:01.185Z,3.04
2023-02-03T19:58:38.693Z,3.04
2023-02-03T20:01:15.588Z,3.04
2023-02-03T20:03:52.414Z,3.03
2023-02-03T20:06:29.694Z,3.03
2023-02-03T20:09:07.111Z,3.03
2023-02-03T20:11:45.867Z,3.01
2023-02-03T20:14:22.480Z,3.01
2023-02-03T20:16:59.063Z,3.00
2023-02-03T20:19:36.013Z,2.99
2023-02-03T20:22:12.827Z,2.97
2023-02-03T20:24:49.249Z,2.94
2023-02-03T20:27:25.955Z,2.92
2023-02-03T20:30:03.185Z,2.90
2023-02-03T20:32:40.156Z,2.88
2023-02-03T20:35:16.646Z,2.85
2023-02-03T20:37:53.251Z,2.82
2023-02-03T20:40:30.589Z,2.81
2023-02-03T20:43:17.502Z,2.81
2023-02-03T20:45:55.658Z,2.79
2023-02-03T20:48:32.451Z,2.79
2023-02-03T20:51:13.642Z,2.82
2023-02-03T20:53:51.608Z,2.82
2023-02-03T20:56:27.974Z,2.81
2023-02-03T20:59:04.381Z,2.81
2023-02-03T21:01:41.140Z,2.82
2023-02-03T21:04:39.289Z,2.83
2023-02-03T21:07:19.741Z,2.84
2023-02-03T21:09:56.211Z,2.83
2023-02-03T21:12:34.308Z,2.83
2023-02-03T21:15:30.830Z,2.82
2023-02-03T21:18:26.471Z,2.81
2023-02-03T21:21:04.102Z,2.78
2023-02-03T21:23:47.623Z,2.74
2023-02-03T21:26:30.050Z,2.70
2023-02-03T21:29:16.839Z,2.68
2023-02-03T21:31:54.186Z,2.65
2023-02-03T21:34:43.351Z,2.62
2023-02-03T21:37:46.866Z,2.61
2023-02-03T21:40:33.511Z,2.57
2023-02-03T21:43:23.749Z,2.56
2023-02-03T21:46:00.174Z,2.55
2023-02-03T21:48:41.642Z,2.53
2023-02-03T21:51:24.082Z,2.53
2023-02-03T21:54:03.894Z,2.53
2023-02-03T21:56:46.007Z,2.54
2023-02-03T21:59:26.245Z,2.52
2023-02-03T22:02:03.583Z,2.53
2023-02-03T22:04:39.980Z,2.56
2023-02-03T22:07:21.323Z,2.57
2023-02-03T22:09:57.882Z,2.56
2023-02-03T22:12:34.054Z,2.55
2023-02-03T22:15:13.490Z,2.55
2023-02-03T22:17:50.605Z,2.56
2023-02-03T22:20:27.285Z,2.56
2023-02-03T22:23:05.972Z,2.57
2023-02-03T22:25:42.426Z,2.58
2023-02-03T22:28:19.136Z,2.59
2023-02-03T22:30:55.604Z,2.59
2023-02-03T22:33:32.516Z,2.60
2023-02-03T22:36:11.739Z,2.62
2023-02-03T22:38:48.076Z,2.63
2023-02-03T22:41:24.493Z,2.63
2023-02-03T22:44:00.961Z,2.63
2023-02-03T22:46:37.236Z,2.64
2023-02-03T22:49:13.589Z,2.65
2023-02-03T22:51:50.168Z,2.66
2023-02-03T22:54:26.428Z,2.67
2023-02-03T22:57:02.912Z,2.67
2023-02-03T22:59:39.369Z,2.65
2023-02-03T23:02:16.140Z,2.62
2023-02-03T23:04:52.665Z,2.61
2023-02-03T23:07:29.026Z,2.58
2023-02-03T23:10:06.238Z,2.58
2023-02-03T23:12:42.729Z,2.54
2023-02-03T23:15:20.028Z,2.52
2023-02-03T23:17:56.405Z,2.50
2023-02-03T23:20:33.141Z,2.49
2023-02-03T23:23:09.879Z,2.46
2023-02-03T23:25:46.305Z,2.46
2023-02-03T23:28:22.681Z,2.44
2023-02-03T23:30:59.070Z,2.43
2023-02-03T23:33:35.529Z,2.40
2023-02-03T23:36:13.505Z,2.38
2023-02-03T23:38:49.974Z,2.36
2023-02-03T23:41:26.496Z,2.35
2023-02-03T23:44:03.179Z,2.34
2023-02-03T23:46:39.523Z,2.34
2023-02-03T23:49:16.049Z,2.33
2023-02-03T23:51:52.536Z,2.32
2023-02-03T23:54:29.085Z,2.33
2023-02-03T23:57:05.904Z,2.34
2023-02-03T23:59:42.340Z,2.35
